sensor_id;sensor_type;location;lat;lon;timestamp;pressure;altitude;pressure_sealevel;temperature
69007;BMP180;56061;51.748;19.620;2023-02-26T00:01:39;97635.00;;;0.80
69007;BMP180;56061;51.748;19.620;2023-02-26T00:04:07;97637.80;;;0.70
69007;BMP180;56061;51.748;19.620;2023-02-26T00:06:37;97643.00;;;0.70
69007;BMP180;56061;51.748;19.620;2023-02-26T00:09:05;97640.80;;;0.70
69007;BMP180;56061;51.748;19.620;2023-02-26T00:11:32;97643.20;;;0.70
69007;BMP180;56061;51.748;19.620;2023-02-26T00:13:59;97643.60;;;0.70
69007;BMP180;56061;51.748;19.620;2023-02-26T00:16:33;97658.20;;;0.70
69007;BMP180;56061;51.748;19.620;2023-02-26T00:19:05;97652.40;;;0.70
69007;BMP180;56061;51.748;19.620;2023-02-26T00:21:34;97653.00;;;0.70
69007;BMP180;56061;51.748;19.620;2023-02-26T00:24:02;97663.20;;;0.70
69007;BMP180;56061;51.748;19.620;2023-02-26T00:26:30;97660.40;;;0.70
69007;BMP180;56061;51.748;19.620;2023-02-26T00:28:58;97662.00;;;0.64
69007;BMP180;56061;51.748;19.620;2023-02-26T00:31:25;97661.00;;;0.70
69007;BMP180;56061;51.748;19.620;2023-02-26T00:33:55;97665.00;;;0.70
69007;BMP180;56061;51.748;19.620;2023-02-26T00:36:51;97667.40;;;0.60
69007;BMP180;56061;51.748;19.620;2023-02-26T00:42:13;97671.20;;;0.56
69007;BMP180;56061;51.748;19.620;2023-02-26T00:44:40;97671.40;;;0.60
69007;BMP180;56061;51.748;19.620;2023-02-26T00:47:32;97674.40;;;0.60
69007;BMP180;56061;51.748;19.620;2023-02-26T00:53:16;97687.20;;;0.50
69007;BMP180;56061;51.748;19.620;2023-02-26T00:55:45;97688.80;;;0.50
69007;BMP180;56061;51.748;19.620;2023-02-26T00:58:12;97697.80;;;0.50
69007;BMP180;56061;51.748;19.620;2023-02-26T01:00:38;97696.40;;;0.52
69007;BMP180;56061;51.748;19.620;2023-02-26T01:03:05;97707.40;;;0.56
69007;BMP180;56061;51.748;19.620;2023-02-26T01:05:32;97705.60;;;0.60
69007;BMP180;56061;51.748;19.620;2023-02-26T01:08:13;97714.20;;;0.60
69007;BMP180;56061;51.748;19.620;2023-02-26T01:10:41;97712.60;;;0.60
69007;BMP180;56061;51.748;19.620;2023-02-26T01:13:09;97730.80;;;0.60
69007;BMP180;56061;51.748;19.620;2023-02-26T01:15:36;97717.00;;;0.60
69007;BMP180;56061;51.748;19.620;2023-02-26T01:18:27;97718.40;;;0.56
69007;BMP180;56061;51.748;19.620;2023-02-26T01:21:04;97725.20;;;0.52
69007;BMP180;56061;51.748;19.620;2023-02-26T01:23:37;97728.80;;;0.54
69007;BMP180;56061;51.748;19.620;2023-02-26T01:26:30;97730.80;;;0.50
69007;BMP180;56061;51.748;19.620;2023-02-26T01:28:57;97729.80;;;0.50
69007;BMP180;56061;51.748;19.620;2023-02-26T01:31:49;97736.20;;;0.50
69007;BMP180;56061;51.748;19.620;2023-02-26T01:34:36;97741.00;;;0.50
69007;BMP180;56061;51.748;19.620;2023-02-26T01:37:30;97738.20;;;0.50
69007;BMP180;56061;51.748;19.620;2023-02-26T01:40:28;97750.00;;;0.50
69007;BMP180;56061;51.748;19.620;2023-02-26T01:43:07;97752.20;;;0.46
69007;BMP180;56061;51.748;19.620;2023-02-26T01:45:56;97753.80;;;0.50
69007;BMP180;56061;51.748;19.620;2023-02-26T01:48:58;97758.80;;;0.50
69007;BMP180;56061;51.748;19.620;2023-02-26T01:54:17;97759.40;;;0.50
69007;BMP180;56061;51.748;19.620;2023-02-26T01:56:50;97765.40;;;0.50
69007;BMP180;56061;51.748;19.620;2023-02-26T01:59:18;97769.60;;;0.46
69007;BMP180;56061;51.748;19.620;2023-02-26T02:01:55;97774.00;;;0.40
69007;BMP180;56061;51.748;19.620;2023-02-26T02:04:23;97776.80;;;0.50
69007;BMP180;56061;51.748;19.620;2023-02-26T02:06:50;97777.60;;;0.50
69007;BMP180;56061;51.748;19.620;2023-02-26T02:09:17;97788.00;;;0.50
69007;BMP180;56061;51.748;19.620;2023-02-26T02:12:07;97789.80;;;0.50
69007;BMP180;56061;51.748;19.620;2023-02-26T02:14:48;97797.60;;;0.50
69007;BMP180;56061;51.748;19.620;2023-02-26T02:17:47;97806.60;;;0.50
69007;BMP180;56061;51.748;19.620;2023-02-26T02:20:44;97803.60;;;0.50
69007;BMP180;56061;51.748;19.620;2023-02-26T02:23:35;97806.60;;;0.50
69007;BMP180;56061;51.748;19.620;2023-02-26T02:29:30;97827.00;;;0.50
69007;BMP180;56061;51.748;19.620;2023-02-26T02:32:07;97837.40;;;0.50
69007;BMP180;56061;51.748;19.620;2023-02-26T02:34:47;97835.20;;;0.40
69007;BMP180;56061;51.748;19.620;2023-02-26T02:37:42;97840.00;;;0.40
69007;BMP180;56061;51.748;19.620;2023-02-26T02:40:29;97843.80;;;0.40
69007;BMP180;56061;51.748;19.620;2023-02-26T02:43:03;97845.60;;;0.40
69007;BMP180;56061;51.748;19.620;2023-02-26T02:45:50;97849.60;;;0.50
69007;BMP180;56061;51.748;19.620;2023-02-26T02:48:37;97851.80;;;0.50
69007;BMP180;56061;51.748;19.620;2023-02-26T02:51:17;97855.20;;;0.50
69007;BMP180;56061;51.748;19.620;2023-02-26T02:53:52;97867.60;;;0.40
69007;BMP180;56061;51.748;19.620;2023-02-26T02:56:29;97869.40;;;0.38
69007;BMP180;56061;51.748;19.620;2023-02-26T02:59:12;97871.40;;;0.30
69007;BMP180;56061;51.748;19.620;2023-02-26T03:01:43;97878.40;;;0.30
69007;BMP180;56061;51.748;19.620;2023-02-26T03:04:14;97882.00;;;0.40
69007;BMP180;56061;51.748;19.620;2023-02-26T03:06:42;97878.20;;;0.40
69007;BMP180;56061;51.748;19.620;2023-02-26T03:09:09;97884.00;;;0.40
69007;BMP180;56061;51.748;19.620;2023-02-26T03:11:36;97886.80;;;0.30
69007;BMP180;56061;51.748;19.620;2023-02-26T03:14:04;97888.40;;;0.30
69007;BMP180;56061;51.748;19.620;2023-02-26T03:16:48;97891.20;;;0.10
69007;BMP180;56061;51.748;19.620;2023-02-26T03:22:21;97900.20;;;0.18
69007;BMP180;56061;51.748;19.620;2023-02-26T03:25:26;97903.60;;;0.20
69007;BMP180;56061;51.748;19.620;2023-02-26T03:31:05;97915.20;;;0.20
69007;BMP180;56061;51.748;19.620;2023-02-26T03:34:11;97914.60;;;0.20
69007;BMP180;56061;51.748;19.620;2023-02-26T03:36:48;97914.60;;;0.22
69007;BMP180;56061;51.748;19.620;2023-02-26T03:39:36;97923.00;;;0.20
69007;BMP180;56061;51.748;19.620;2023-02-26T03:42:15;97922.80;;;0.20
69007;BMP180;56061;51.748;19.620;2023-02-26T03:44:51;97931.20;;;0.20
69007;BMP180;56061;51.748;19.620;2023-02-26T03:47:19;97944.00;;;0.20
69007;BMP180;56061;51.748;19.620;2023-02-26T03:49:58;97943.40;;;0.20
69007;BMP180;56061;51.748;19.620;2023-02-26T03:52:30;97946.80;;;0.20
69007;BMP180;56061;51.748;19.620;2023-02-26T03:55:12;97958.20;;;0.20
69007;BMP180;56061;51.748;19.620;2023-02-26T03:57:40;97965.20;;;0.20
69007;BMP180;56061;51.748;19.620;2023-02-26T04:00:09;97959.40;;;0.20
69007;BMP180;56061;51.748;19.620;2023-02-26T04:02:46;97962.00;;;0.20
69007;BMP180;56061;51.748;19.620;2023-02-26T04:05:18;97972.80;;;0.26
69007;BMP180;56061;51.748;19.620;2023-02-26T04:07:47;97977.60;;;0.20
69007;BMP180;56061;51.748;19.620;2023-02-26T04:10:19;97976.80;;;0.20
69007;BMP180;56061;51.748;19.620;2023-02-26T04:12:47;97981.60;;;0.18
69007;BMP180;56061;51.748;19.620;2023-02-26T04:15:13;97992.40;;;0.10
69007;BMP180;56061;51.748;19.620;2023-02-26T04:17:40;97990.40;;;0.10
69007;BMP180;56061;51.748;19.620;2023-02-26T04:20:07;97989.00;;;0.18
69007;BMP180;56061;51.748;19.620;2023-02-26T04:22:37;97990.80;;;0.20
69007;BMP180;56061;51.748;19.620;2023-02-26T04:25:04;97994.20;;;0.20
69007;BMP180;56061;51.748;19.620;2023-02-26T04:27:31;97992.60;;;0.20
69007;BMP180;56061;51.748;19.620;2023-02-26T04:29:57;97991.00;;;0.20
69007;BMP180;56061;51.748;19.620;2023-02-26T04:32:24;97991.60;;;0.14
69007;BMP180;56061;51.748;19.620;2023-02-26T04:34:50;97986.60;;;0.10
69007;BMP180;56061;51.748;19.620;2023-02-26T04:37:17;97997.00;;;0.10
69007;BMP180;56061;51.748;19.620;2023-02-26T04:39:43;97997.20;;;0.10
69007;BMP180;56061;51.748;19.620;2023-02-26T04:42:10;97997.00;;;0.18
69007;BMP180;56061;51.748;19.620;2023-02-26T04:44:36;97995.80;;;0.12
69007;BMP180;56061;51.748;19.620;2023-02-26T04:47:03;97999.00;;;0.10
69007;BMP180;56061;51.748;19.620;2023-02-26T04:49:29;97998.80;;;0.10
69007;BMP180;56061;51.748;19.620;2023-02-26T04:51:56;98002.20;;;0.10
69007;BMP180;56061;51.748;19.620;2023-02-26T04:54:23;98009.20;;;0.00
69007;BMP180;56061;51.748;19.620;2023-02-26T04:56:50;98013.20;;;0.00
69007;BMP180;56061;51.748;19.620;2023-02-26T04:59:16;98016.60;;;0.10
69007;BMP180;56061;51.748;19.620;2023-02-26T05:01:43;98017.20;;;0.10
69007;BMP180;56061;51.748;19.620;2023-02-26T05:04:09;98018.40;;;0.00
69007;BMP180;56061;51.748;19.620;2023-02-26T05:06:36;98030.20;;;0.00
69007;BMP180;56061;51.748;19.620;2023-02-26T05:09:03;98028.00;;;0.00
69007;BMP180;56061;51.748;19.620;2023-02-26T05:11:29;98028.00;;;0.00
69007;BMP180;56061;51.748;19.620;2023-02-26T05:13:56;98033.20;;;0.04
69007;BMP180;56061;51.748;19.620;2023-02-26T05:16:22;98038.40;;;0.10
69007;BMP180;56061;51.748;19.620;2023-02-26T05:18:49;98033.80;;;0.00
69007;BMP180;56061;51.748;19.620;2023-02-26T05:21:16;98033.60;;;0.00
69007;BMP180;56061;51.748;19.620;2023-02-26T05:23:42;98033.80;;;-0.02
69007;BMP180;56061;51.748;19.620;2023-02-26T05:26:09;98044.00;;;-0.10
69007;BMP180;56061;51.748;19.620;2023-02-26T05:28:36;98045.80;;;0.00
69007;BMP180;56061;51.748;19.620;2023-02-26T05:31:03;98055.20;;;0.00
69007;BMP180;56061;51.748;19.620;2023-02-26T05:33:30;98061.00;;;0.00
69007;BMP180;56061;51.748;19.620;2023-02-26T05:35:57;98065.20;;;0.00
69007;BMP180;56061;51.748;19.620;2023-02-26T05:38:24;98077.80;;;0.00
69007;BMP180;56061;51.748;19.620;2023-02-26T05:40:55;98076.00;;;0.00
69007;BMP180;56061;51.748;19.620;2023-02-26T05:43:23;98079.40;;;0.04
69007;BMP180;56061;51.748;19.620;2023-02-26T05:45:50;98085.40;;;0.06
69007;BMP180;56061;51.748;19.620;2023-02-26T05:48:17;98090.00;;;0.10
69007;BMP180;56061;51.748;19.620;2023-02-26T05:50:44;98097.20;;;0.10
69007;BMP180;56061;51.748;19.620;2023-02-26T05:53:10;98111.60;;;0.00
69007;BMP180;56061;51.748;19.620;2023-02-26T05:55:37;98114.80;;;0.00
69007;BMP180;56061;51.748;19.620;2023-02-26T05:58:03;98117.20;;;0.00
69007;BMP180;56061;51.748;19.620;2023-02-26T06:00:30;98121.60;;;0.00
69007;BMP180;56061;51.748;19.620;2023-02-26T06:02:56;98126.20;;;0.00
69007;BMP180;56061;51.748;19.620;2023-02-26T06:05:23;98136.40;;;0.00
69007;BMP180;56061;51.748;19.620;2023-02-26T06:07:50;98146.40;;;0.00
69007;BMP180;56061;51.748;19.620;2023-02-26T06:10:16;98145.00;;;0.00
69007;BMP180;56061;51.748;19.620;2023-02-26T06:12:45;98155.00;;;-0.10
69007;BMP180;56061;51.748;19.620;2023-02-26T06:15:11;98155.00;;;-0.20
69007;BMP180;56061;51.748;19.620;2023-02-26T06:17:38;98161.60;;;-0.20
69007;BMP180;56061;51.748;19.620;2023-02-26T06:20:07;98162.00;;;-0.10
69007;BMP180;56061;51.748;19.620;2023-02-26T06:22:34;98166.80;;;-0.10
69007;BMP180;56061;51.748;19.620;2023-02-26T06:25:01;98171.40;;;-0.02
69007;BMP180;56061;51.748;19.620;2023-02-26T06:27:27;98173.40;;;0.00
69007;BMP180;56061;51.748;19.620;2023-02-26T06:29:54;98177.00;;;-0.10
69007;BMP180;56061;51.748;19.620;2023-02-26T06:32:20;98181.20;;;-0.20
69007;BMP180;56061;51.748;19.620;2023-02-26T06:34:47;98192.00;;;-0.20
69007;BMP180;56061;51.748;19.620;2023-02-26T06:37:13;98197.80;;;-0.30
69007;BMP180;56061;51.748;19.620;2023-02-26T06:39:41;98204.20;;;-0.30
69007;BMP180;56061;51.748;19.620;2023-02-26T06:42:07;98211.60;;;-0.20
69007;BMP180;56061;51.748;19.620;2023-02-26T06:44:34;98208.20;;;-0.20
69007;BMP180;56061;51.748;19.620;2023-02-26T06:47:00;98216.20;;;-0.20
69007;BMP180;56061;51.748;19.620;2023-02-26T06:49:27;98219.20;;;-0.18
69007;BMP180;56061;51.748;19.620;2023-02-26T06:51:53;98230.20;;;-0.10
69007;BMP180;56061;51.748;19.620;2023-02-26T06:54:20;98231.20;;;-0.10
69007;BMP180;56061;51.748;19.620;2023-02-26T06:56:46;98232.60;;;-0.10
69007;BMP180;56061;51.748;19.620;2023-02-26T06:59:13;98235.80;;;-0.10
69007;BMP180;56061;51.748;19.620;2023-02-26T07:01:40;98245.40;;;-0.10
69007;BMP180;56061;51.748;19.620;2023-02-26T07:04:07;98242.60;;;-0.10
69007;BMP180;56061;51.748;19.620;2023-02-26T07:06:34;98255.20;;;-0.10
69007;BMP180;56061;51.748;19.620;2023-02-26T07:09:00;98254.60;;;-0.10
69007;BMP180;56061;51.748;19.620;2023-02-26T07:11:27;98258.20;;;-0.10
69007;BMP180;56061;51.748;19.620;2023-02-26T07:13:54;98267.00;;;-0.02
69007;BMP180;56061;51.748;19.620;2023-02-26T07:16:21;98258.80;;;-0.06
69007;BMP180;56061;51.748;19.620;2023-02-26T07:18:47;98264.60;;;0.00
69007;BMP180;56061;51.748;19.620;2023-02-26T07:21:14;98272.40;;;0.00
69007;BMP180;56061;51.748;19.620;2023-02-26T07:23:40;98286.00;;;-0.08
69007;BMP180;56061;51.748;19.620;2023-02-26T07:26:07;98284.80;;;-0.10
69007;BMP180;56061;51.748;19.620;2023-02-26T07:28:34;98299.20;;;-0.10
69007;BMP180;56061;51.748;19.620;2023-02-26T07:31:01;98304.60;;;-0.04
69007;BMP180;56061;51.748;19.620;2023-02-26T07:33:28;98304.80;;;0.00
69007;BMP180;56061;51.748;19.620;2023-02-26T07:35:54;98310.80;;;0.00
69007;BMP180;56061;51.748;19.620;2023-02-26T07:38:21;98317.00;;;0.08
69007;BMP180;56061;51.748;19.620;2023-02-26T07:40:47;98320.60;;;0.10
69007;BMP180;56061;51.748;19.620;2023-02-26T07:43:15;98326.80;;;0.20
69007;BMP180;56061;51.748;19.620;2023-02-26T07:45:41;98330.40;;;0.30
69007;BMP180;56061;51.748;19.620;2023-02-26T07:48:08;98338.40;;;0.30
69007;BMP180;56061;51.748;19.620;2023-02-26T07:50:34;98340.20;;;0.34
69007;BMP180;56061;51.748;19.620;2023-02-26T07:53:01;98350.20;;;0.34
69007;BMP180;56061;51.748;19.620;2023-02-26T07:55:27;98354.60;;;0.34
69007;BMP180;56061;51.748;19.620;2023-02-26T07:57:55;98357.40;;;0.30
69007;BMP180;56061;51.748;19.620;2023-02-26T08:00:22;98355.80;;;0.30
69007;BMP180;56061;51.748;19.620;2023-02-26T08:02:50;98363.60;;;0.30
69007;BMP180;56061;51.748;19.620;2023-02-26T08:05:17;98366.00;;;0.40
69007;BMP180;56061;51.748;19.620;2023-02-26T08:07:44;98365.40;;;0.40
69007;BMP180;56061;51.748;19.620;2023-02-26T08:10:11;98366.60;;;0.40
69007;BMP180;56061;51.748;19.620;2023-02-26T08:12:38;98366.60;;;0.40
69007;BMP180;56061;51.748;19.620;2023-02-26T08:15:05;98375.20;;;0.46
69007;BMP180;56061;51.748;19.620;2023-02-26T08:17:32;98371.80;;;0.50
69007;BMP180;56061;51.748;19.620;2023-02-26T08:19:59;98370.40;;;0.46
69007;BMP180;56061;51.748;19.620;2023-02-26T08:22:26;98380.80;;;0.40
69007;BMP180;56061;51.748;19.620;2023-02-26T08:24:55;98386.20;;;0.40
69007;BMP180;56061;51.748;19.620;2023-02-26T08:27:22;98382.60;;;0.50
69007;BMP180;56061;51.748;19.620;2023-02-26T08:29:49;98382.40;;;0.50
69007;BMP180;56061;51.748;19.620;2023-02-26T08:32:18;98390.60;;;0.40
69007;BMP180;56061;51.748;19.620;2023-02-26T08:34:45;98393.40;;;0.50
69007;BMP180;56061;51.748;19.620;2023-02-26T08:37:12;98393.80;;;0.50
69007;BMP180;56061;51.748;19.620;2023-02-26T08:39:40;98394.20;;;0.60
69007;BMP180;56061;51.748;19.620;2023-02-26T08:42:08;98388.20;;;0.70
69007;BMP180;56061;51.748;19.620;2023-02-26T08:44:35;98393.20;;;0.72
69007;BMP180;56061;51.748;19.620;2023-02-26T08:47:01;98395.20;;;0.76
69007;BMP180;56061;51.748;19.620;2023-02-26T08:49:29;98399.20;;;0.80
69007;BMP180;56061;51.748;19.620;2023-02-26T08:51:56;98408.60;;;0.80
69007;BMP180;56061;51.748;19.620;2023-02-26T08:54:23;98408.00;;;0.80
69007;BMP180;56061;51.748;19.620;2023-02-26T08:56:50;98411.60;;;0.80
69007;BMP180;56061;51.748;19.620;2023-02-26T08:59:18;98422.80;;;0.80
69007;BMP180;56061;51.748;19.620;2023-02-26T09:01:45;98428.60;;;0.80
69007;BMP180;56061;51.748;19.620;2023-02-26T09:04:12;98436.40;;;0.80
69007;BMP180;56061;51.748;19.620;2023-02-26T09:06:38;98436.40;;;0.80
69007;BMP180;56061;51.748;19.620;2023-02-26T09:09:06;98440.40;;;0.70
69007;BMP180;56061;51.748;19.620;2023-02-26T09:11:33;98444.60;;;0.70
69007;BMP180;56061;51.748;19.620;2023-02-26T09:13:59;98451.20;;;0.60
69007;BMP180;56061;51.748;19.620;2023-02-26T09:16:28;98455.00;;;0.62
69007;BMP180;56061;51.748;19.620;2023-02-26T09:18:56;98454.80;;;0.60
69007;BMP180;56061;51.748;19.620;2023-02-26T09:21:26;98457.20;;;0.70
69007;BMP180;56061;51.748;19.620;2023-02-26T09:23:52;98466.60;;;0.70
69007;BMP180;56061;51.748;19.620;2023-02-26T09:26:19;98472.60;;;0.78
69007;BMP180;56061;51.748;19.620;2023-02-26T09:28:45;98479.80;;;0.80
69007;BMP180;56061;51.748;19.620;2023-02-26T09:31:11;98480.00;;;0.80
69007;BMP180;56061;51.748;19.620;2023-02-26T09:33:39;98483.40;;;0.80
69007;BMP180;56061;51.748;19.620;2023-02-26T09:36:06;98484.00;;;0.80
69007;BMP180;56061;51.748;19.620;2023-02-26T09:38:33;98491.20;;;0.88
69007;BMP180;56061;51.748;19.620;2023-02-26T09:41:06;98494.00;;;0.90
69007;BMP180;56061;51.748;19.620;2023-02-26T09:46:43;98506.00;;;1.00
69007;BMP180;56061;51.748;19.620;2023-02-26T09:52:42;98511.00;;;0.90
69007;BMP180;56061;51.748;19.620;2023-02-26T09:55:18;98513.20;;;0.90
69007;BMP180;56061;51.748;19.620;2023-02-26T09:57:50;98513.60;;;1.00
69007;BMP180;56061;51.748;19.620;2023-02-26T10:00:46;98524.60;;;1.20
69007;BMP180;56061;51.748;19.620;2023-02-26T10:03:58;98522.20;;;1.30
69007;BMP180;56061;51.748;19.620;2023-02-26T10:12:49;98552.60;;;1.36
69007;BMP180;56061;51.748;19.620;2023-02-26T10:15:34;98558.80;;;1.20
69007;BMP180;56061;51.748;19.620;2023-02-26T10:18:22;98562.20;;;1.10
69007;BMP180;56061;51.748;19.620;2023-02-26T10:21:12;98565.60;;;1.08
69007;BMP180;56061;51.748;19.620;2023-02-26T10:23:44;98574.00;;;1.00
69007;BMP180;56061;51.748;19.620;2023-02-26T10:32:31;98577.40;;;1.00
69007;BMP180;56061;51.748;19.620;2023-02-26T10:35:11;98583.60;;;0.90
69007;BMP180;56061;51.748;19.620;2023-02-26T10:38:05;98586.40;;;0.80
69007;BMP180;56061;51.748;19.620;2023-02-26T10:40:50;98591.40;;;0.80
69007;BMP180;56061;51.748;19.620;2023-02-26T10:43:31;98590.20;;;0.80
69007;BMP180;56061;51.748;19.620;2023-02-26T10:46:30;98592.60;;;0.88
69007;BMP180;56061;51.748;19.620;2023-02-26T10:49:28;98603.40;;;0.90
69007;BMP180;56061;51.748;19.620;2023-02-26T10:52:12;98603.20;;;0.90
69007;BMP180;56061;51.748;19.620;2023-02-26T10:58:03;98605.20;;;0.90
69007;BMP180;56061;51.748;19.620;2023-02-26T11:00:33;98607.60;;;0.80
69007;BMP180;56061;51.748;19.620;2023-02-26T11:03:04;98617.40;;;0.80
69007;BMP180;56061;51.748;19.620;2023-02-26T11:05:33;98617.80;;;0.80
69007;BMP180;56061;51.748;19.620;2023-02-26T11:08:17;98628.40;;;0.90
69007;BMP180;56061;51.748;19.620;2023-02-26T11:10:58;98628.80;;;1.00
69007;BMP180;56061;51.748;19.620;2023-02-26T11:13:28;98628.00;;;1.12
69007;BMP180;56061;51.748;19.620;2023-02-26T11:16:01;98626.20;;;1.30
69007;BMP180;56061;51.748;19.620;2023-02-26T11:18:44;98636.20;;;1.50
69007;BMP180;56061;51.748;19.620;2023-02-26T11:21:21;98640.60;;;1.60
69007;BMP180;56061;51.748;19.620;2023-02-26T11:26:53;98644.40;;;1.80
69007;BMP180;56061;51.748;19.620;2023-02-26T11:29:21;98649.80;;;1.80
69007;BMP180;56061;51.748;19.620;2023-02-26T11:31:54;98654.00;;;1.80
69007;BMP180;56061;51.748;19.620;2023-02-26T11:34:25;98650.40;;;1.74
69007;BMP180;56061;51.748;19.620;2023-02-26T11:36:56;98657.60;;;1.72
69007;BMP180;56061;51.748;19.620;2023-02-26T11:39:31;98661.80;;;1.70
69007;BMP180;56061;51.748;19.620;2023-02-26T11:42:00;98663.20;;;1.70
69007;BMP180;56061;51.748;19.620;2023-02-26T11:44:56;98678.20;;;1.70
69007;BMP180;56061;51.748;19.620;2023-02-26T11:47:28;98676.60;;;1.70
69007;BMP180;56061;51.748;19.620;2023-02-26T11:50:03;98678.80;;;1.70
69007;BMP180;56061;51.748;19.620;2023-02-26T11:55:04;98693.60;;;1.70
69007;BMP180;56061;51.748;19.620;2023-02-26T11:57:32;98704.00;;;1.60
69007;BMP180;56061;51.748;19.620;2023-02-26T12:00:23;98702.20;;;1.54
69007;BMP180;56061;51.748;19.620;2023-02-26T12:02:50;98697.60;;;1.50
69007;BMP180;56061;51.748;19.620;2023-02-26T12:05:17;98705.80;;;1.60
69007;BMP180;56061;51.748;19.620;2023-02-26T12:07:44;98705.00;;;1.70
69007;BMP180;56061;51.748;19.620;2023-02-26T12:10:27;98698.20;;;1.70
69007;BMP180;56061;51.748;19.620;2023-02-26T12:13:11;98708.20;;;1.80
69007;BMP180;56061;51.748;19.620;2023-02-26T12:19:02;98706.20;;;2.10
69007;BMP180;56061;51.748;19.620;2023-02-26T12:22:00;98709.00;;;2.20
69007;BMP180;56061;51.748;19.620;2023-02-26T12:27:37;98709.00;;;2.30
69007;BMP180;56061;51.748;19.620;2023-02-26T12:31:17;98705.20;;;2.40
69007;BMP180;56061;51.748;19.620;2023-02-26T12:33:54;98720.00;;;2.40
69007;BMP180;56061;51.748;19.620;2023-02-26T12:36:49;98715.60;;;2.40
69007;BMP180;56061;51.748;19.620;2023-02-26T12:42:30;98724.40;;;2.30
69007;BMP180;56061;51.748;19.620;2023-02-26T12:45:46;98722.60;;;2.20
69007;BMP180;56061;51.748;19.620;2023-02-26T12:48:51;98719.00;;;2.30
69007;BMP180;56061;51.748;19.620;2023-02-26T12:51:43;98722.80;;;2.30
69007;BMP180;56061;51.748;19.620;2023-02-26T12:54:34;98721.00;;;2.20
69007;BMP180;56061;51.748;19.620;2023-02-26T13:00:35;98721.80;;;2.40
69007;BMP180;56061;51.748;19.620;2023-02-26T13:03:42;98726.00;;;2.50
69007;BMP180;56061;51.748;19.620;2023-02-26T13:09:34;98740.00;;;2.80
69007;BMP180;56061;51.748;19.620;2023-02-26T13:12:32;98739.40;;;2.80
69007;BMP180;56061;51.748;19.620;2023-02-26T13:18:45;98752.00;;;2.60
69007;BMP180;56061;51.748;19.620;2023-02-26T13:21:26;98766.40;;;2.50
69007;BMP180;56061;51.748;19.620;2023-02-26T13:24:23;98767.60;;;2.42
